createdAt,value
2019-05-21T00:00:48.696Z,99783.17
2019-05-21T00:03:22.114Z,99784.34
2019-05-21T00:05:55.551Z,99780.37
2019-05-21T00:08:28.973Z,99785.02
2019-05-21T00:11:02.402Z,99786.38
2019-05-21T00:13:35.831Z,99786.59
2019-05-21T00:16:09.239Z,99786.38
2019-05-21T00:18:42.684Z,99783.12
2019-05-21T00:21:16.137Z,99786.06
2019-05-21T00:23:49.548Z,99788.36
2019-05-21T00:26:22.983Z,99791.00
2019-05-21T00:29:32.959Z,99789.67
2019-05-21T00:32:43.015Z,99789.23
2019-05-21T00:35:53.572Z,99793.36
2019-05-21T00:39:04.004Z,99793.19
2019-05-21T00:42:02.629Z,99795.37
2019-05-21T00:44:42.069Z,99793.70
2019-05-21T00:47:15.473Z,99800.78
2019-05-21T00:49:48.905Z,99795.44
2019-05-21T00:52:22.367Z,99795.44
2019-05-21T00:54:55.786Z,99796.20
2019-05-21T00:57:29.220Z,99791.03
2019-05-21T01:00:02.800Z,99796.34
2019-05-21T01:02:36.269Z,99790.88
2019-05-21T01:05:09.847Z,99794.98
2019-05-21T01:07:43.262Z,99791.39
2019-05-21T01:10:16.814Z,99794.64
2019-05-21T01:12:50.222Z,99786.57
2019-05-21T01:15:23.640Z,99780.77
2019-05-21T01:17:57.050Z,99782.02
2019-05-21T01:20:30.455Z,99782.96
2019-05-21T01:23:03.855Z,99785.18
2019-05-21T01:25:37.388Z,99783.30
2019-05-21T01:28:10.805Z,99780.14
2019-05-21T01:30:44.232Z,99785.08
2019-05-21T01:33:17.653Z,99782.02
2019-05-21T01:35:51.084Z,99780.84
2019-05-21T01:38:24.505Z,99783.65
2019-05-21T01:40:57.948Z,99779.28
2019-05-21T01:43:31.345Z,99782.33
2019-05-21T01:46:04.828Z,99785.88
2019-05-21T01:48:38.241Z,99781.84
2019-05-21T01:51:11.671Z,99782.33
2019-05-21T01:53:45.090Z,99784.10
2019-05-21T01:56:18.522Z,99778.38
2019-05-21T01:58:51.938Z,99776.05
2019-05-21T02:01:25.450Z,99773.41
2019-05-21T02:03:58.870Z,99781.97
2019-05-21T02:06:32.357Z,99773.27
2019-05-21T02:09:07.303Z,99773.53
2019-05-21T02:11:40.710Z,99771.16
2019-05-21T02:14:14.124Z,99769.94
2019-05-21T02:16:47.553Z,99771.16
2019-05-21T02:19:20.972Z,99777.51
2019-05-21T02:21:54.403Z,99770.92
2019-05-21T02:24:27.802Z,99774.91
2019-05-21T02:27:01.230Z,99771.48
2019-05-21T02:29:34.638Z,99775.65
2019-05-21T02:32:08.067Z,99772.25
2019-05-21T02:34:41.473Z,99768.03
2019-05-21T02:37:14.897Z,99771.53
2019-05-21T02:39:48.280Z,99769.07
2019-05-21T02:42:21.707Z,99777.91
2019-05-21T02:44:55.201Z,99771.70
2019-05-21T02:47:28.889Z,99773.81
2019-05-21T02:50:02.369Z,99775.20
2019-05-21T02:52:35.877Z,99774.69
2019-05-21T02:55:09.668Z,99780.20
2019-05-21T02:57:43.112Z,99774.59
2019-05-21T03:00:31.173Z,99772.55
2019-05-21T03:03:06.391Z,99769.42
2019-05-21T03:05:39.780Z,99764.12
2019-05-21T03:08:13.189Z,99758.88
2019-05-21T03:10:46.687Z,99762.70
2019-05-21T03:13:20.085Z,99761.03
2019-05-21T03:15:53.574Z,99762.88
2019-05-21T03:18:27.015Z,99763.46
2019-05-21T03:21:00.411Z,99764.88
2019-05-21T03:23:33.888Z,99774.03
2019-05-21T03:26:07.402Z,99777.98
2019-05-21T03:28:40.858Z,99776.22
2019-05-21T03:31:15.109Z,99784.64
2019-05-21T03:33:48.546Z,99785.16
2019-05-21T03:36:32.717Z,99785.16
2019-05-21T03:38:57.117Z,99785.16
2019-05-21T03:41:30.528Z,99786.05
2019-05-21T03:44:04.029Z,99786.58
2019-05-21T03:46:37.475Z,99783.94
2019-05-21T03:49:10.912Z,99785.26
2019-05-21T03:51:44.334Z,99788.76
2019-05-21T03:54:17.777Z,99796.31
2019-05-21T03:56:51.254Z,99800.75
2019-05-21T03:59:25.076Z,99796.03
2019-05-21T04:01:58.583Z,99789.06
2019-05-21T04:04:32.035Z,99790.77
2019-05-21T04:07:05.446Z,99786.88
2019-05-21T04:09:38.883Z,99789.86
2019-05-21T04:12:12.303Z,99776.86
2019-05-21T04:15:02.404Z,99761.97
2019-05-21T04:17:49.514Z,99757.18
2019-05-21T04:20:22.934Z,99747.20
2019-05-21T04:22:56.336Z,99751.56
2019-05-21T04:25:29.753Z,99753.75
2019-05-21T04:28:03.150Z,99761.16
2019-05-21T04:30:36.645Z,99778.56
2019-05-21T04:33:10.058Z,99793.56
2019-05-21T04:35:43.552Z,99798.73
2019-05-21T04:38:16.995Z,99791.56
2019-05-21T04:40:50.477Z,99804.45
2019-05-21T04:43:23.870Z,99793.05
2019-05-21T04:45:57.939Z,99795.87
2019-05-21T04:48:31.315Z,99798.61
2019-05-21T04:51:04.796Z,99794.90
2019-05-21T04:53:38.201Z,99793.16
2019-05-21T04:56:11.662Z,99787.86
2019-05-21T04:58:45.085Z,99782.25
2019-05-21T05:01:18.870Z,99786.20
2019-05-21T05:03:52.312Z,99788.77
2019-05-21T05:06:25.769Z,99784.36
2019-05-21T05:08:59.145Z,99787.66
2019-05-21T05:11:32.557Z,99789.21
2019-05-21T05:14:05.970Z,99790.95
2019-05-21T05:16:39.445Z,99796.15
2019-05-21T05:19:12.914Z,99794.73
2019-05-21T05:21:46.413Z,99809.21
2019-05-21T05:24:19.792Z,99817.84
2019-05-21T05:26:53.245Z,99817.05
2019-05-21T05:29:26.662Z,99823.02
2019-05-21T05:32:00.100Z,99825.81
2019-05-21T05:34:33.516Z,99820.38
2019-05-21T05:37:06.952Z,99831.30
2019-05-21T05:39:40.360Z,99826.38
2019-05-21T05:42:13.803Z,99833.70
2019-05-21T05:44:47.579Z,99832.27
2019-05-21T05:47:21.014Z,99824.33
2019-05-21T05:50:02.028Z,99824.43
2019-05-21T05:52:35.435Z,99831.43
2019-05-21T05:55:09.063Z,99833.86
2019-05-21T05:57:42.476Z,99827.70
2019-05-21T06:00:17.589Z,99830.40
2019-05-21T06:02:51.027Z,99829.98
2019-05-21T06:05:24.573Z,99828.31
2019-05-21T06:08:00.193Z,99816.36
2019-05-21T06:10:33.204Z,99814.59
2019-05-21T06:13:06.709Z,99812.00
2019-05-21T06:15:40.110Z,99808.11
2019-05-21T06:18:13.512Z,99803.36
2019-05-21T06:20:46.944Z,99801.53
2019-05-21T06:23:20.375Z,99803.30
2019-05-21T06:25:53.794Z,99793.11
2019-05-21T06:28:27.228Z,99799.77
2019-05-21T06:31:00.645Z,99802.91
2019-05-21T06:33:34.046Z,99807.25
2019-05-21T06:36:07.540Z,99804.27
2019-05-21T06:38:40.942Z,99806.52
2019-05-21T06:41:14.483Z,99804.98
2019-05-21T06:43:47.941Z,99801.25
2019-05-21T06:46:21.349Z,99820.58
2019-05-21T06:48:54.737Z,99825.23
2019-05-21T06:51:28.166Z,99826.16
2019-05-21T06:54:01.577Z,99825.98
2019-05-21T06:56:35.057Z,99821.52
2019-05-21T06:59:08.481Z,99835.86
2019-05-21T07:01:41.899Z,99833.45
2019-05-21T07:04:15.392Z,99830.83
2019-05-21T07:06:48.843Z,99840.01
2019-05-21T07:09:22.267Z,99848.23
2019-05-21T07:11:55.725Z,99857.58
2019-05-21T07:14:29.124Z,99860.08
2019-05-21T07:17:02.550Z,99865.60
2019-05-21T07:19:35.961Z,99875.91
2019-05-21T07:22:13.006Z,99879.73
2019-05-21T07:24:44.592Z,99881.95
2019-05-21T07:27:17.999Z,99890.27
2019-05-21T07:29:51.384Z,99879.95
2019-05-21T07:32:24.870Z,99890.84
2019-05-21T07:34:58.267Z,99895.11
2019-05-21T07:37:31.679Z,99889.84
2019-05-21T07:40:07.902Z,99894.53
2019-05-21T07:42:41.397Z,99901.02
2019-05-21T07:45:15.132Z,99901.53
2019-05-21T07:47:48.550Z,99910.75
2019-05-21T07:50:21.936Z,99906.28
2019-05-21T07:52:56.153Z,99907.48
2019-05-21T07:55:29.561Z,99903.49
2019-05-21T07:58:02.973Z,99910.53
2019-05-21T08:00:36.364Z,99912.58
2019-05-21T08:03:09.797Z,99912.04
2019-05-21T08:05:43.195Z,99904.17
2019-05-21T08:08:16.617Z,99909.50
2019-05-21T08:10:50.001Z,99922.86
2019-05-21T08:13:23.481Z,99922.06
2019-05-21T08:15:56.866Z,99919.36
2019-05-21T08:18:30.269Z,99921.90
2019-05-21T08:21:03.667Z,99926.17
2019-05-21T08:23:37.119Z,99932.37
2019-05-21T08:26:10.558Z,99945.92
2019-05-21T08:28:43.978Z,99950.52
2019-05-21T08:31:17.374Z,99955.56
2019-05-21T08:33:50.796Z,99960.83
2019-05-21T08:36:24.196Z,99965.91
2019-05-21T08:38:57.613Z,99958.71
2019-05-21T08:41:31.022Z,99967.12
2019-05-21T08:44:04.488Z,99968.38
2019-05-21T08:46:37.880Z,99975.83
2019-05-21T08:49:11.283Z,99970.34
2019-05-21T08:51:44.683Z,99970.12
2019-05-21T08:54:19.748Z,99973.56
2019-05-21T08:56:53.157Z,99974.20
2019-05-21T08:59:26.558Z,99979.92
2019-05-21T09:02:00.035Z,99980.89
2019-05-21T09:04:45.866Z,99987.45
2019-05-21T09:07:08.900Z,99986.73
2019-05-21T09:09:50.045Z,99988.77
2019-05-21T09:12:17.601Z,99988.27
2019-05-21T09:14:51.018Z,99995.66
2019-05-21T09:17:24.426Z,99999.52
2019-05-21T09:19:57.927Z,100004.60
2019-05-21T09:22:31.407Z,100010.52
2019-05-21T09:25:06.337Z,100008.75
2019-05-21T09:27:39.879Z,100003.13
2019-05-21T09:30:13.837Z,100016.72
2019-05-21T09:32:47.226Z,100013.51
2019-05-21T09:35:20.701Z,100015.27
2019-05-21T09:37:54.163Z,100019.33
2019-05-21T09:40:28.233Z,100015.92
2019-05-21T09:43:01.643Z,100018.02
2019-05-21T09:45:35.153Z,100012.39
2019-05-21T09:48:08.517Z,100025.24
2019-05-21T09:50:41.944Z,100038.20
2019-05-21T09:53:15.658Z,100036.97
2019-05-21T09:55:49.067Z,100045.08
2019-05-21T09:58:26.565Z,100044.72
2019-05-21T10:01:13.857Z,100042.77
2019-05-21T10:03:58.322Z,100053.44
2019-05-21T10:06:31.744Z,100059.45
2019-05-21T10:09:09.392Z,100058.29
2019-05-21T10:11:42.906Z,100058.29
2019-05-21T10:14:16.395Z,100051.30
2019-05-21T10:16:49.802Z,100059.98
2019-05-21T10:19:23.198Z,100059.30
2019-05-21T10:21:57.195Z,100057.92
2019-05-21T10:24:30.649Z,100065.13
2019-05-21T10:27:04.245Z,100066.63
2019-05-21T10:29:37.622Z,100059.81
2019-05-21T10:32:11.113Z,100073.45
2019-05-21T10:34:44.530Z,100068.82
2019-05-21T10:37:18.079Z,100074.65
2019-05-21T10:39:51.562Z,100077.66
2019-05-21T10:42:25.006Z,100084.00
2019-05-21T10:44:58.419Z,100081.95
2019-05-21T10:47:31.861Z,100086.87
2019-05-21T10:50:07.558Z,100081.53
2019-05-21T10:52:41.042Z,100083.78
2019-05-21T10:55:16.119Z,100092.78
2019-05-21T10:57:49.707Z,100087.51
2019-05-21T11:00:23.667Z,100100.28
2019-05-21T11:03:01.646Z,100090.03
2019-05-21T11:05:39.691Z,100102.44
2019-05-21T11:08:23.365Z,100112.95
2019-05-21T11:10:48.312Z,100116.19
2019-05-21T11:13:21.730Z,100119.85
2019-05-21T11:15:55.242Z,100119.96
2019-05-21T11:18:28.646Z,100133.44
2019-05-21T11:21:02.042Z,100131.77
2019-05-21T11:23:35.482Z,100135.56
2019-05-21T11:26:08.865Z,100141.62
2019-05-21T11:28:42.291Z,100149.21
2019-05-21T11:31:15.744Z,100150.40
2019-05-21T11:33:49.177Z,100151.98
2019-05-21T11:36:22.578Z,100144.87
2019-05-21T11:38:56.885Z,100158.77
2019-05-21T11:41:30.282Z,100157.64
2019-05-21T11:44:03.823Z,100161.88
2019-05-21T11:46:37.285Z,100165.94
2019-05-21T11:49:10.763Z,100162.52
2019-05-21T11:51:44.172Z,100172.28
2019-05-21T11:54:17.635Z,100172.63
2019-05-21T11:56:51.024Z,100170.95
2019-05-21T11:59:24.430Z,100176.75
2019-05-21T12:01:57.836Z,100181.58
2019-05-21T12:04:31.235Z,100178.03
2019-05-21T12:07:04.796Z,100171.02
2019-05-21T12:09:38.242Z,100170.05
2019-05-21T12:12:11.620Z,100186.95
2019-05-21T12:14:45.028Z,100183.34
2019-05-21T12:17:18.417Z,100190.07
2019-05-21T12:19:51.922Z,100193.06
2019-05-21T12:22:25.315Z,100197.59
2019-05-21T12:24:58.764Z,100201.46
2019-05-21T12:27:32.153Z,100210.53
2019-05-21T12:30:08.419Z,100210.53
2019-05-21T12:32:41.851Z,100206.67
2019-05-21T12:35:15.321Z,100214.14
2019-05-21T12:37:48.737Z,100216.08
2019-05-21T12:40:22.423Z,100224.01
2019-05-21T12:42:55.835Z,100234.84
2019-05-21T12:45:32.179Z,100230.05
2019-05-21T12:48:05.564Z,100231.20
2019-05-21T12:50:39.749Z,100234.02
2019-05-21T12:53:16.493Z,100244.18
2019-05-21T12:55:49.381Z,100259.26
2019-05-21T12:58:22.772Z,100254.50
2019-05-21T13:00:56.190Z,100253.11
2019-05-21T13:03:29.653Z,100254.73
2019-05-21T13:06:03.148Z,100269.45
2019-05-21T13:08:36.529Z,100262.81
2019-05-21T13:11:09.957Z,100261.27
2019-05-21T13:13:43.463Z,100273.72
2019-05-21T13:16:16.878Z,100273.52
2019-05-21T13:18:50.259Z,100276.08
2019-05-21T13:21:23.695Z,100281.77
2019-05-21T13:23:57.402Z,100284.13
2019-05-21T13:26:30.830Z,100286.92
2019-05-21T13:29:04.567Z,100289.39
2019-05-21T13:31:38.081Z,100298.42
2019-05-21T13:34:11.516Z,100303.05
2019-05-21T13:36:44.915Z,100300.55
2019-05-21T13:39:18.484Z,100298.73
2019-05-21T13:41:51.974Z,100305.99
2019-05-21T13:44:25.393Z,100306.50
2019-05-21T13:46:58.882Z,100310.51
2019-05-21T13:49:32.303Z,100319.98
2019-05-21T13:52:05.769Z,100320.45
2019-05-21T13:54:39.200Z,100314.13
2019-05-21T13:57:12.778Z,100322.48
2019-05-21T13:59:46.196Z,100329.80
2019-05-21T14:02:20.188Z,100325.69
2019-05-21T14:04:53.762Z,100328.93
2019-05-21T14:07:27.223Z,100338.47
2019-05-21T14:10:14.289Z,100330.75
2019-05-21T14:12:36.070Z,100335.02
2019-05-21T14:15:09.722Z,100342.03
2019-05-21T14:17:43.192Z,100346.77
2019-05-21T14:20:16.842Z,100343.27
2019-05-21T14:22:50.262Z,100348.46
2019-05-21T14:25:23.786Z,100344.67
2019-05-21T14:27:57.165Z,100351.65
2019-05-21T14:30:30.598Z,100348.98
2019-05-21T14:33:04.459Z,100361.34
2019-05-21T14:35:37.876Z,100354.28
2019-05-21T14:38:11.268Z,100362.17
2019-05-21T14:40:44.769Z,100368.63
2019-05-21T14:43:18.187Z,100369.07
2019-05-21T14:45:51.594Z,100373.39
2019-05-21T14:48:24.984Z,100376.40
2019-05-21T14:50:58.417Z,100372.50
2019-05-21T14:53:31.810Z,100372.95
2019-05-21T14:56:05.247Z,100377.85
2019-05-21T14:58:38.652Z,100381.45
2019-05-21T15:01:12.074Z,100380.19
2019-05-21T15:03:45.666Z,100374.52
2019-05-21T15:06:19.434Z,100377.62
2019-05-21T15:08:52.924Z,100378.95
2019-05-21T15:11:26.367Z,100386.94
2019-05-21T15:13:59.806Z,100381.50
2019-05-21T15:16:33.240Z,100390.23
2019-05-21T15:19:06.644Z,100388.03
2019-05-21T15:21:41.772Z,100380.41
2019-05-21T15:24:15.439Z,100391.86
2019-05-21T15:26:49.242Z,100394.05
2019-05-21T15:29:22.667Z,100397.13
2019-05-21T15:31:56.103Z,100392.28
2019-05-21T15:34:29.493Z,100400.19
2019-05-21T15:37:02.950Z,100401.50
2019-05-21T15:39:36.333Z,100403.33
2019-05-21T15:44:48.596Z,100410.80
2019-05-21T15:47:22.009Z,100402.83
2019-05-21T15:49:55.430Z,100409.78
2019-05-21T15:52:28.863Z,100406.27
2019-05-21T15:55:06.776Z,100413.63
2019-05-21T15:57:37.509Z,100408.72
2019-05-21T16:00:16.103Z,100421.09
2019-05-21T16:02:49.468Z,100423.16
2019-05-21T16:05:22.938Z,100428.87
2019-05-21T16:07:56.396Z,100428.30
2019-05-21T16:10:29.812Z,100430.44
2019-05-21T16:13:03.343Z,100433.08
2019-05-21T16:15:36.835Z,100439.67
2019-05-21T16:18:10.268Z,100434.84
2019-05-21T16:20:43.908Z,100438.72
2019-05-21T16:23:17.398Z,100435.32
2019-05-21T16:25:50.791Z,100434.84
2019-05-21T16:28:24.220Z,100435.34
2019-05-21T16:30:57.729Z,100444.05
2019-05-21T16:33:31.252Z,100437.03
2019-05-21T16:36:04.832Z,100441.78
2019-05-21T16:38:38.345Z,100443.86
2019-05-21T16:41:11.748Z,100444.25
2019-05-21T16:43:45.196Z,100450.45
2019-05-21T16:46:18.587Z,100439.08
2019-05-21T16:48:52.009Z,100447.19
2019-05-21T16:51:25.515Z,100453.26
2019-05-21T16:53:58.997Z,100454.30
2019-05-21T16:56:32.463Z,100453.09
2019-05-21T16:59:05.986Z,100457.92
2019-05-21T17:01:39.494Z,100451.84
2019-05-21T17:04:12.898Z,100461.50
2019-05-21T17:06:46.383Z,100469.00
2019-05-21T17:09:19.872Z,100465.55
2019-05-21T17:12:00.046Z,100471.24
2019-05-21T17:14:28.405Z,100472.95
2019-05-21T17:17:01.868Z,100473.14
2019-05-21T17:19:35.359Z,100473.06
2019-05-21T17:22:08.761Z,100474.89
2019-05-21T17:24:42.378Z,100477.10
2019-05-21T17:27:15.769Z,100481.48
2019-05-21T17:29:49.226Z,100477.60
2019-05-21T17:32:22.627Z,100488.16
2019-05-21T17:34:56.149Z,100490.42
2019-05-21T17:37:29.699Z,100497.95
2019-05-21T17:40:04.523Z,100495.75
2019-05-21T17:42:37.918Z,100504.22
2019-05-21T17:45:11.501Z,100500.79
2019-05-21T17:47:44.922Z,100507.38
2019-05-21T17:50:18.783Z,100507.88
2019-05-21T17:52:52.258Z,100508.83
2019-05-21T17:55:25.870Z,100508.06
2019-05-21T17:57:59.426Z,100508.94
2019-05-21T18:00:49.898Z,100513.78
2019-05-21T18:03:23.950Z,100519.94
2019-05-21T18:05:58.310Z,100519.08
2019-05-21T18:08:32.282Z,100517.81
2019-05-21T18:11:06.162Z,100520.39
2019-05-21T18:13:39.923Z,100528.30
2019-05-21T18:16:14.100Z,100529.63
2019-05-21T18:18:48.053Z,100534.05
2019-05-21T18:21:23.561Z,100537.98
2019-05-21T18:23:56.962Z,100544.12
2019-05-21T18:26:30.457Z,100547.62
2019-05-21T18:29:03.839Z,100551.64
2019-05-21T18:31:37.320Z,100554.78
2019-05-21T18:34:11.161Z,100558.25
2019-05-21T18:36:44.608Z,100562.20
2019-05-21T18:39:18.935Z,100562.59
2019-05-21T18:41:52.426Z,100567.84
2019-05-21T18:44:26.103Z,100577.45
2019-05-21T18:46:59.592Z,100577.45
2019-05-21T18:49:33.014Z,100583.64
2019-05-21T18:52:06.727Z,100589.41
2019-05-21T18:54:40.219Z,100592.91
2019-05-21T18:57:16.827Z,100599.61
2019-05-21T18:59:50.142Z,100602.63
2019-05-21T19:02:23.617Z,100600.56
2019-05-21T19:04:57.114Z,100610.72
2019-05-21T19:07:30.674Z,100606.31
2019-05-21T19:10:06.726Z,100615.73
2019-05-21T19:12:41.231Z,100614.08
2019-05-21T19:15:16.069Z,100618.09
2019-05-21T19:17:49.603Z,100627.80
2019-05-21T19:20:23.227Z,100627.37
2019-05-21T19:22:56.673Z,100636.66
2019-05-21T19:25:30.084Z,100642.42
2019-05-21T19:28:03.658Z,100651.64
2019-05-21T19:30:37.149Z,100654.70
2019-05-21T19:33:10.716Z,100664.33
2019-05-21T19:35:44.134Z,100654.66
2019-05-21T19:38:17.817Z,100667.84
2019-05-21T19:40:51.375Z,100668.55
2019-05-21T19:43:24.908Z,100668.45
2019-05-21T19:45:58.343Z,100675.47
2019-05-21T19:48:31.769Z,100675.52
2019-05-21T19:51:05.376Z,100679.92
2019-05-21T19:53:38.823Z,100681.14
2019-05-21T19:56:12.388Z,100679.94
2019-05-21T19:58:45.874Z,100679.98
2019-05-21T20:01:19.604Z,100683.70
2019-05-21T20:03:53.604Z,100684.75
2019-05-21T20:06:27.606Z,100685.30
2019-05-21T20:09:01.245Z,100698.09
2019-05-21T20:11:34.808Z,100700.38
2019-05-21T20:14:08.255Z,100698.57
2019-05-21T20:16:42.359Z,100702.09
2019-05-21T20:19:17.482Z,100702.09
2019-05-21T20:21:51.420Z,100701.70
2019-05-21T20:24:25.507Z,100705.60
2019-05-21T20:26:59.185Z,100701.22
2019-05-21T20:29:33.076Z,100704.39
2019-05-21T20:32:06.956Z,100710.48
2019-05-21T20:34:40.729Z,100709.59
2019-05-21T20:37:16.584Z,100712.73
2019-05-21T20:39:51.778Z,100708.34
2019-05-21T20:42:26.863Z,100705.17
2019-05-21T20:45:00.331Z,100708.72
2019-05-21T20:47:34.365Z,100706.98
2019-05-21T20:50:12.111Z,100708.68
2019-05-21T20:52:45.443Z,100711.74
2019-05-21T20:55:19.590Z,100709.06
2019-05-21T20:57:54.054Z,100703.35
2019-05-21T21:00:45.435Z,100704.68
2019-05-21T21:03:18.969Z,100705.16
2019-05-21T21:05:52.420Z,100704.19
2019-05-21T21:08:27.836Z,100706.38
2019-05-21T21:11:01.607Z,100705.16
2019-05-21T21:13:35.681Z,100707.80
2019-05-21T21:16:10.118Z,100705.06
2019-05-21T21:18:44.441Z,100707.70
2019-05-21T21:21:18.336Z,100712.48
2019-05-21T21:23:52.123Z,100706.38
2019-05-21T21:26:25.807Z,100715.50
2019-05-21T21:28:59.432Z,100715.20
2019-05-21T21:31:32.892Z,100720.49
2019-05-21T21:34:06.793Z,100719.50
2019-05-21T21:36:40.738Z,100725.26
2019-05-21T21:39:14.318Z,100723.50
2019-05-21T21:41:48.264Z,100723.45
2019-05-21T21:44:33.374Z,100721.59
2019-05-21T21:46:57.763Z,100725.59
2019-05-21T21:49:32.836Z,100722.91
2019-05-21T21:52:07.847Z,100725.55
2019-05-21T21:54:41.931Z,100728.14
2019-05-21T21:57:15.387Z,100733.02
2019-05-21T21:59:48.830Z,100731.20
2019-05-21T22:02:25.763Z,100726.42
2019-05-21T22:05:01.108Z,100730.38
2019-05-21T22:07:35.137Z,100729.45
2019-05-21T22:10:09.613Z,100732.52
2019-05-21T22:12:43.444Z,100730.38
2019-05-21T22:15:17.977Z,100731.27
2019-05-21T22:17:51.386Z,100731.75
2019-05-21T22:20:25.197Z,100732.19
2019-05-21T22:22:58.897Z,100728.72
2019-05-21T22:25:32.571Z,100731.25
2019-05-21T22:28:06.043Z,100735.98
2019-05-21T22:30:39.846Z,100734.77
2019-05-21T22:33:13.497Z,100738.33
2019-05-21T22:35:46.931Z,100741.47
2019-05-21T22:38:20.400Z,100739.33
2019-05-21T22:40:53.827Z,100738.98
2019-05-21T22:43:28.354Z,100736.78
2019-05-21T22:46:02.552Z,100737.27
2019-05-21T22:48:36.129Z,100730.73
2019-05-21T22:51:09.692Z,100732.98
2019-05-21T22:54:00.106Z,100734.30
2019-05-21T22:56:33.544Z,100728.16
2019-05-21T22:59:07.085Z,100732.05
2019-05-21T23:01:42.254Z,100736.01
2019-05-21T23:04:15.898Z,100736.45
2019-05-21T23:06:49.406Z,100737.66
2019-05-21T23:09:22.808Z,100735.80
2019-05-21T23:11:56.338Z,100739.75
2019-05-21T23:14:29.769Z,100742.39
2019-05-21T23:20:38.102Z,100731.46
2019-05-21T23:23:12.601Z,100725.27
2019-05-21T23:25:46.937Z,100731.08
2019-05-21T23:28:20.605Z,100729.77
2019-05-21T23:30:54.557Z,100728.05
2019-05-21T23:33:28.710Z,100724.98
2019-05-21T23:36:02.665Z,100731.61
2019-05-21T23:38:36.682Z,100726.78
2019-05-21T23:41:10.887Z,100723.71
2019-05-21T23:43:44.376Z,100722.00
2019-05-21T23:46:18.603Z,100731.72
2019-05-21T23:48:52.073Z,100719.43
2019-05-21T23:51:25.476Z,100712.84
2019-05-21T23:53:59.268Z,100713.76
2019-05-21T23:56:32.944Z,100720.84
2019-05-21T23:59:06.872Z,100720.88
